Quick Links (Output Below):   Max & Min Temps   /   Climate Reports   /   Zone Forecasts
River Forecasts   /   Forestry Forecasts   /   Aviation Forecasts   /   Radars   /   Features

Terminal Aerodrome Forecast (Arkadelphia)

Pick a Site:
Arkadelphia | El Dorado | Fayetteville | Fort Smith | Harrison | Highfill | Hot Springs | Jonesboro
Little Rock | Monticello | Mountain Home | Pine Bluff | Texarkana
 Forecast 

KADF 031135Z 0312/0412 00000KT 6SM BR SKC
      TEMPO 0312/0313 2SM BR
     FM031500 17005KT P6SM SCT040
     FM040000 12003KT P6SM SKC=


 Latest METARs (Observations) 
How to Decode METARs
19Z KADF 031856Z AUTO VRB05KT 10SM CLR 36/19 A2997 RMK AO2 T03550194
         SLP159
         
15Z KADF 031456Z AUTO VRB03KT 8SM CLR 28/22 A3003 RMK AO2 50003
         T02830222 SLP181
         
14Z KADF 031356Z AUTO 00000KT 8SM CLR 24/22 A3003 RMK AO2 T02440216
         SLP182
         
13Z KADF 031256Z AUTO 03003KT 7SM CLR 22/22 A3003 RMK AO2 T02220216
         SLP183
         
12Z KADF 031156Z AUTO 00000KT 5SM BR CLR 19/19 A3002 RMK AO2 53008
         T01940194 10211 20188 SLP178
         
11Z KADF 031056Z AUTO 00000KT 2 1/2SM BR CLR 19/19 A3001 RMK AO2
         T01940194 SLP173
         
10Z KADF 030956Z AUTO 00000KT 7SM CLR 20/20 A3000 RMK AO2 T02000200
         SLP170
         
09Z KADF 030856Z AUTO 00000KT 4SM BR CLR 20/20 A2999 RMK AO2 55001
         T02000200 SLP168
         
07Z KADF 030656Z AUTO 00000KT 6SM BR CLR 21/21 A2999 RMK AO2 T02050205
         SLP168
         
06Z KADF 030556Z AUTO 00000KT 7SM CLR 21/21 A3000 RMK AO2 56003
         T02050205 10266 20205 SLP170
         
***** Today's Observations (Above) *****


Back to Main Page
http://www.srh.noaa.gov/lzk/qfcst.php

USA.gov is the U.S. government's official web portal to all federal, state and local government web resources and services.